createdAt,value
2019-02-07T00:12:01.026Z,3.43
2019-02-07T00:32:10.532Z,3.59
2019-02-07T00:52:20.079Z,3.46
2019-02-07T01:12:29.686Z,3.64
2019-02-07T01:32:41.399Z,3.75
2019-02-07T01:52:40.874Z,3.83
2019-02-07T02:12:50.483Z,3.94
2019-02-07T02:33:00.101Z,4.38
2019-02-07T02:53:11.995Z,5.03
2019-02-07T03:13:13.889Z,5.05
2019-02-07T03:33:13.444Z,4.12
2019-02-07T03:53:22.892Z,3.39
2019-02-07T04:13:34.711Z,2.77
2019-02-07T04:33:34.222Z,2.64
2019-02-07T04:53:45.939Z,3.20
2019-02-07T05:13:45.445Z,5.28
2019-02-07T05:33:57.528Z,7.05
2019-02-07T05:53:56.978Z,6.47
2019-02-07T06:14:06.532Z,14.91
2019-02-07T06:34:28.388Z,15.10
2019-02-07T06:54:17.308Z,10.97
2019-02-07T07:14:26.756Z,5.55
2019-02-07T07:34:36.261Z,6.41
2019-02-07T07:54:45.758Z,7.28
2019-02-07T08:14:55.273Z,8.82
2019-02-07T08:35:04.774Z,9.64
2019-02-07T08:55:14.320Z,10.24
2019-02-07T09:15:23.879Z,6.96
2019-02-07T09:35:33.427Z,8.49
2019-02-07T09:55:41.605Z,8.00
2019-02-07T10:15:55.680Z,8.59
2019-02-07T10:35:55.302Z,10.15
2019-02-07T10:56:04.826Z,9.78
2019-02-07T11:16:16.658Z,9.32
2019-02-07T11:36:16.183Z,10.37
2019-02-07T11:56:25.667Z,11.17
2019-02-07T12:16:35.149Z,11.09
2019-02-07T12:36:44.721Z,12.49
2019-02-07T12:56:56.570Z,12.69
2019-02-07T13:16:56.311Z,12.61
2019-02-07T13:37:05.956Z,12.53
2019-02-07T13:57:15.524Z,13.73
2019-02-07T14:17:25.123Z,13.85
2019-02-07T14:37:37.032Z,14.14
2019-02-07T14:57:36.653Z,15.71
2019-02-07T15:17:48.956Z,14.17
2019-02-07T15:37:47.028Z,15.57
2019-02-07T15:57:56.150Z,15.75
2019-02-07T16:18:05.842Z,12.81
2019-02-07T16:38:15.493Z,14.04
2019-02-07T16:58:25.251Z,11.59
2019-02-07T17:18:35.503Z,14.20
2019-02-07T17:38:36.791Z,13.25
2019-02-07T17:58:46.751Z,14.25
2019-02-07T18:18:51.816Z,12.90
2019-02-07T18:38:54.406Z,15.44
2019-02-07T18:58:54.024Z,16.93
2019-02-07T19:19:03.799Z,16.67
2019-02-07T19:39:18.139Z,14.37
2019-02-07T19:59:20.078Z,18.81
2019-02-07T20:19:30.041Z,12.91
2019-02-07T20:39:29.409Z,13.96
2019-02-07T20:59:38.971Z,14.75
2019-02-07T21:19:48.551Z,17.77
2019-02-07T21:39:58.103Z,18.99
2019-02-07T22:00:12.074Z,17.07
2019-02-07T22:20:11.606Z,14.41
2019-02-07T22:40:21.070Z,19.29
2019-02-07T23:00:31.489Z,22.21
2019-02-07T23:20:31.050Z,20.04
2019-02-07T23:40:40.574Z,18.78
